Accueil
METAR-TAF:

METAR-TAF

Aéroports :

Aéroport international de Yap

Yap, Micronésie

latitude: 09-29N, longitude: 138-05E, altitude: 28 m

Observation

Le bulletin a été fait il y a 45 minutes, à 18:50 UTC
Vent 6 kt de direction variable
Température 27°C
Humidité 94%
Pression 1007 hPa
Visibilité: 19.3 km
Nuages fragmentés à une hauteur de 1600 ft, Cumulus congestus.
Nuages fragmentés à une hauteur de 13000 ft
Ciel couvert à une hauteur de 30000 ft

METAR: PTYA 221850Z VRB06KT 12SM BKN016TCU BKN130 OVC300 27/26 A2973 RMK TCU ALQDS SLP068 T02740257

Heure: 05:35 (19:35 UTC)

Prévision

Le bulletin a été fait il y a 2 heures et 3 minutes, à 17:32 UTC
Prévision valable du 22 à 18 UTC au 23 à 18 UTC
Vent 6 kt de nord/nord-ouest
Visibilité: 10 km
Nuages épars à une hauteur de 1600 ft
Nuages fragmentés à une hauteur de 13000 ft
averses à proximité

TAF: PTYA 221732Z 2218/2318 33006KT P6SM VCSH SCT016 BKN130

Observations et prévisions météorologiques de plus de 4000 aéroports (messages METAR et TAF).

Les stations disponibles sont représentées par des disques jaunes et rouges sur la carte.

Passer la souris dessus pour voir le nom de la station.

Cliquer dessus pour voir les observations et prévisions météorologiques.

Pour changer de carte: cliquez sur les boutons verts avec une croix noire pour zoomer, sur le bouton vert avec un tiret pour effectuer un zoom arrière, ou sur les flèches vertes pour les cartes adjacentes.


METAR-TAF: